Time;durP1;ratioP1;P1;durP2;ratioP2;P2;SDS_P1;SDS_P2;PMS_P1;PMS_P2;Temp;Humidity;BMP_temperature;BMP_pressure;BME280_temperature;BME280_humidity;BME280_pressure;Samples;Min_cycle;Max_cycle;Signal;HPM_P1;HPM_P2
2021/03/23 00:00:58;;;;;;;3.80;2.73;;;5.20;99.90;;;;;;5007302;28;20257;-52
2021/03/23 00:03:37;;;;;;;4.90;2.53;;;5.20;99.90;;;;;;4991733;28;20238;-52
2021/03/23 00:06:07;;;;;;;3.47;2.40;;;5.20;99.90;;;;;;4991322;28;20479;-51
2021/03/23 00:08:38;;;;;;;5.10;2.83;;;5.20;99.90;;;;;;5005947;28;20491;-54
2021/03/23 00:11:09;;;;;;;5.93;2.60;;;5.10;99.90;;;;;;4994596;28;20524;-52
2021/03/23 00:13:37;;;;;;;4.27;2.90;;;5.10;99.90;;;;;;5010921;28;20480;-52
2021/03/23 00:16:05;;;;;;;4.53;2.80;;;5.10;99.90;;;;;;5010206;28;20495;-51
2021/03/23 00:18:34;;;;;;;6.20;2.80;;;5.10;99.90;;;;;;5004387;28;20237;-54
2021/03/23 00:21:02;;;;;;;4.80;2.60;;;5.10;99.90;;;;;;5021463;28;20568;-52
2021/03/23 00:23:29;;;;;;;7.50;3.10;;;5.10;99.90;;;;;;5010507;28;20584;-53
2021/03/23 00:25:57;;;;;;;5.43;2.47;;;5.10;99.90;;;;;;5009919;28;20477;-54
2021/03/23 00:28:25;;;;;;;5.77;3.03;;;5.10;99.90;;;;;;5009995;28;20537;-51
2021/03/23 00:30:54;;;;;;;4.00;2.63;;;5.10;99.90;;;;;;5006253;28;20526;-51
2021/03/23 00:33:22;;;;;;;4.23;2.70;;;5.10;99.90;;;;;;5009100;28;20626;-51
2021/03/23 00:35:54;;;;;;;4.63;2.77;;;5.10;99.90;;;;;;5010125;28;20472;-51
2021/03/23 00:38:22;;;;;;;3.93;2.63;;;5.20;99.90;;;;;;5010468;28;20483;-51
2021/03/23 00:40:51;;;;;;;6.00;2.60;;;5.20;99.90;;;;;;5008661;28;20478;-51
2021/03/23 00:43:20;;;;;;;5.83;2.70;;;5.20;99.90;;;;;;4971575;28;20694;-50
2021/03/23 00:45:48;;;;;;;6.37;2.90;;;5.50;99.90;;;;;;4989331;28;20482;-53
2021/03/23 00:48:17;;;;;;;6.47;2.63;;;5.40;99.90;;;;;;5007836;28;20711;-52
2021/03/23 00:50:45;;;;;;;5.73;2.67;;;5.30;99.90;;;;;;5009800;28;20475;-54
2021/03/23 00:53:13;;;;;;;5.93;2.90;;;5.20;99.90;;;;;;5025424;28;20244;-51
2021/03/23 00:55:41;;;;;;;9.67;3.27;;;5.30;99.90;;;;;;5000784;28;20470;-51
2021/03/23 00:58:08;;;;;;;6.33;2.60;;;5.30;99.90;;;;;;4990166;28;20550;-54
2021/03/23 01:00:36;;;;;;;4.90;2.80;;;5.30;99.90;;;;;;4989273;28;20511;-52
2021/03/23 01:03:04;;;;;;;4.63;2.50;;;5.30;99.90;;;;;;4990707;28;20264;-52
2021/03/23 01:05:35;;;;;;;3.73;2.23;;;5.30;99.90;;;;;;4997278;28;20484;-53
2021/03/23 01:08:03;;;;;;;4.73;2.77;;;5.30;99.90;;;;;;5010129;28;20236;-53
2021/03/23 01:10:33;;;;;;;4.23;2.63;;;5.40;99.90;;;;;;5008250;28;20494;-52
2021/03/23 01:13:01;;;;;;;4.70;2.50;;;5.30;99.90;;;;;;5010050;28;20491;-52
2021/03/23 01:15:32;;;;;;;5.67;2.33;;;5.40;99.90;;;;;;5004440;28;20511;-54
2021/03/23 01:18:01;;;;;;;3.50;2.43;;;5.50;99.90;;;;;;5012845;28;20980;-52
2021/03/23 01:20:31;;;;;;;3.03;2.40;;;5.40;99.90;;;;;;5019958;28;20479;-52
2021/03/23 01:22:59;;;;;;;5.27;2.47;;;5.60;99.90;;;;;;5027661;28;20499;-51
2021/03/23 01:25:27;;;;;;;6.93;3.03;;;5.60;99.90;;;;;;5003882;28;20712;-51
2021/03/23 01:27:54;;;;;;;3.87;2.13;;;5.60;99.90;;;;;;5000848;28;20323;-52
2021/03/23 01:30:25;;;;;;;4.90;2.33;;;5.40;99.90;;;;;;4997613;28;20472;-52
2021/03/23 01:32:54;;;;;;;3.97;2.37;;;5.60;99.90;;;;;;4997776;28;20477;-49
2021/03/23 01:35:25;;;;;;;4.77;2.60;;;5.70;99.90;;;;;;4998646;28;20645;-49
2021/03/23 01:37:52;;;;;;;4.43;2.33;;;5.70;99.90;;;;;;5008982;28;20264;-52
2021/03/23 01:40:25;;;;;;;4.63;2.67;;;5.70;99.90;;;;;;5007087;28;20340;-51
2021/03/23 01:42:55;;;;;;;3.57;2.60;;;5.70;99.90;;;;;;5006382;28;20257;-51
2021/03/23 01:45:33;;;;;;;5.67;2.73;;;5.60;99.90;;;;;;4990121;28;20480;-53
2021/03/23 01:48:04;;;;;;;4.07;2.40;;;5.60;99.90;;;;;;4989605;28;20234;-52
2021/03/23 01:50:33;;;;;;;6.27;2.67;;;5.50;99.90;;;;;;4988472;28;20580;-51
2021/03/23 01:53:09;;;;;;;6.27;2.60;;;5.60;99.90;;;;;;4989848;28;20891;-51
2021/03/23 01:55:38;;;;;;;4.67;2.60;;;5.50;99.90;;;;;;4989636;28;20237;-52
2021/03/23 01:58:06;;;;;;;3.33;2.60;;;5.60;99.90;;;;;;4989370;28;20481;-54
2021/03/23 02:00:34;;;;;;;3.87;2.03;;;5.50;99.90;;;;;;4988334;28;20639;-51
2021/03/23 02:03:04;;;;;;;5.00;2.53;;;5.40;99.90;;;;;;4992067;28;20496;-54
2021/03/23 02:05:34;;;;;;;5.07;2.40;;;5.40;99.90;;;;;;5008900;28;20561;-52
2021/03/23 02:08:04;;;;;;;3.80;2.10;;;5.40;99.90;;;;;;5008976;28;20700;-54
2021/03/23 02:11:00;;;;;;;4.30;2.13;;;5.40;99.90;;;;;;5011376;28;20479;-52
2021/03/23 02:13:28;;;;;;;3.27;2.27;;;5.40;99.90;;;;;;5014082;28;20544;-52
2021/03/23 02:15:56;;;;;;;4.80;2.40;;;5.30;99.90;;;;;;5011308;28;20498;-51
2021/03/23 02:18:26;;;;;;;5.37;2.23;;;5.40;99.90;;;;;;5019108;28;20636;-55
2021/03/23 02:21:08;;;;;;;4.43;2.60;;;5.40;99.90;;;;;;5026256;28;20982;-52
2021/03/23 02:23:39;;;;;;;6.83;2.90;;;5.50;99.90;;;;;;4985739;28;20511;-52
2021/03/23 02:26:09;;;;;;;5.67;2.37;;;5.40;99.90;;;;;;4974682;28;20524;-54
2021/03/23 02:28:42;;;;;;;5.80;2.53;;;5.40;99.90;;;;;;4978015;28;20513;-52
2021/03/23 02:31:09;;;;;;;6.57;2.20;;;5.50;99.90;;;;;;4993775;28;20505;-51
2021/03/23 02:33:37;;;;;;;5.60;3.00;;;5.40;99.90;;;;;;5002322;28;20480;-53
2021/03/23 02:36:06;;;;;;;5.60;2.90;;;5.40;99.90;;;;;;4988455;28;20663;-52
2021/03/23 02:38:33;;;;;;;2.77;2.40;;;5.40;99.90;;;;;;4988438;28;20838;-54
2021/03/23 02:41:01;;;;;;;4.40;2.60;;;5.50;99.90;;;;;;4995468;28;20611;-50
2021/03/23 02:43:28;;;;;;;7.90;2.83;;;5.50;99.90;;;;;;5005750;28;20549;-54
2021/03/23 02:45:57;;;;;;;6.40;2.70;;;5.50;99.90;;;;;;5008230;28;20270;-54
2021/03/23 02:48:25;;;;;;;7.47;2.57;;;5.50;99.90;;;;;;5007921;28;20479;-51
2021/03/23 02:50:53;;;;;;;4.30;2.67;;;5.40;99.90;;;;;;5007027;28;20236;-54
2021/03/23 02:53:22;;;;;;;6.10;3.37;;;5.40;99.90;;;;;;5004892;28;20588;-52
2021/03/23 02:55:49;;;;;;;5.80;2.63;;;5.40;99.90;;;;;;4988867;28;20242;-51
2021/03/23 02:58:17;;;;;;;5.80;2.50;;;5.50;99.90;;;;;;4988489;28;20331;-51
2021/03/23 03:00:45;;;;;;;3.17;2.30;;;5.50;99.90;;;;;;4987379;28;21043;-54
2021/03/23 03:03:12;;;;;;;3.40;2.57;;;5.40;99.90;;;;;;4988426;28;20491;-52
2021/03/23 03:05:52;;;;;;;4.67;2.60;;;5.50;99.90;;;;;;4989877;28;20947;-52
2021/03/23 03:08:22;;;;;;;4.97;2.77;;;5.50;99.90;;;;;;4986507;28;20483;-55
2021/03/23 03:10:50;;;;;;;2.80;2.47;;;5.50;99.90;;;;;;4979064;28;20851;-51
2021/03/23 03:13:21;;;;;;;5.03;2.97;;;5.60;99.90;;;;;;4995528;28;20558;-52
2021/03/23 03:15:49;;;;;;;6.27;2.70;;;5.50;99.90;;;;;;4977765;28;20473;-51
2021/03/23 03:18:18;;;;;;;6.20;2.87;;;5.60;99.90;;;;;;4988235;28;20508;-52
2021/03/23 03:20:46;;;;;;;4.03;2.80;;;5.60;99.90;;;;;;4978242;28;20474;-51
2021/03/23 03:23:14;;;;;;;5.10;3.17;;;5.50;99.90;;;;;;4980356;28;20472;-52
2021/03/23 03:25:42;;;;;;;3.97;2.43;;;5.60;99.90;;;;;;4997061;28;20584;-51
2021/03/23 03:28:10;;;;;;;5.93;2.67;;;5.60;99.90;;;;;;4995848;28;20254;-54
2021/03/23 03:30:40;;;;;;;3.33;2.80;;;5.50;99.90;;;;;;4997017;28;20470;-53
2021/03/23 03:33:10;;;;;;;5.70;2.67;;;5.50;99.90;;;;;;5007836;28;20268;-52
2021/03/23 03:35:40;;;;;;;3.90;2.90;;;5.40;99.90;;;;;;5007952;28;20247;-53
2021/03/23 03:38:08;;;;;;;5.73;2.80;;;5.50;99.90;;;;;;5007752;28;20578;-53
2021/03/23 03:40:39;;;;;;;4.10;3.00;;;5.60;99.90;;;;;;4996259;28;20261;-52
2021/03/23 03:43:10;;;;;;;6.37;2.97;;;5.60;99.90;;;;;;5007277;28;20484;-52
2021/03/23 03:45:38;;;;;;;6.23;3.10;;;5.60;99.90;;;;;;5007043;28;20255;-51
2021/03/23 03:48:07;;;;;;;5.43;2.90;;;5.60;99.90;;;;;;5007119;28;20582;-52
2021/03/23 03:50:35;;;;;;;7.47;3.30;;;5.50;99.90;;;;;;5011163;28;20479;-52
2021/03/23 03:53:03;;;;;;;4.23;2.80;;;5.50;99.90;;;;;;5019168;28;20241;-52
2021/03/23 03:55:34;;;;;;;5.37;3.47;;;5.50;99.90;;;;;;4989931;28;20289;-53
2021/03/23 03:58:02;;;;;;;4.10;2.83;;;5.50;99.90;;;;;;4987752;28;20869;-52
2021/03/23 04:00:33;;;;;;;7.80;3.30;;;5.50;99.90;;;;;;4989480;28;20233;-52
2021/03/23 04:03:05;;;;;;;4.23;3.17;;;5.50;99.90;;;;;;5007767;28;20252;-51
2021/03/23 04:05:35;;;;;;;4.80;2.93;;;5.50;99.90;;;;;;5008252;28;20290;-53
2021/03/23 04:08:04;;;;;;;5.00;2.80;;;5.60;99.90;;;;;;5011270;28;20820;-53
2021/03/23 04:10:32;;;;;;;4.90;3.13;;;5.50;99.90;;;;;;5000674;28;20233;-51
2021/03/23 04:13:00;;;;;;;5.60;3.50;;;5.60;99.90;;;;;;4991629;28;20881;-55
2021/03/23 04:15:33;;;;;;;5.23;3.30;;;5.50;99.90;;;;;;4994384;28;20609;-51
2021/03/23 04:18:01;;;;;;;6.97;3.30;;;5.50;99.90;;;;;;5010516;28;20253;-50
2021/03/23 04:20:30;;;;;;;4.73;3.43;;;5.50;99.90;;;;;;5003266;28;20497;-51
2021/03/23 04:22:58;;;;;;;5.10;3.27;;;5.50;99.90;;;;;;5003228;28;20284;-50
2021/03/23 04:25:29;;;;;;;6.43;3.13;;;5.50;99.90;;;;;;5002377;28;20248;-51
2021/03/23 04:27:57;;;;;;;4.93;3.10;;;5.40;99.90;;;;;;5010641;28;20230;-53
2021/03/23 04:30:26;;;;;;;4.73;3.10;;;5.50;99.90;;;;;;5001853;28;20299;-53
2021/03/23 04:32:56;;;;;;;4.77;3.23;;;5.50;99.90;;;;;;4990660;28;20800;-53
2021/03/23 04:35:29;;;;;;;8.67;3.67;;;5.50;99.90;;;;;;4990892;28;20237;-52
2021/03/23 04:37:57;;;;;;;8.53;3.73;;;5.40;99.90;;;;;;5003051;28;20483;-52
2021/03/23 04:40:24;;;;;;;6.30;3.73;;;5.40;99.90;;;;;;5002503;28;20237;-54
2021/03/23 04:42:51;;;;;;;5.27;3.30;;;5.50;99.90;;;;;;4991044;28;20728;-54
2021/03/23 04:45:19;;;;;;;7.43;3.63;;;5.50;99.90;;;;;;4990825;28;20321;-53
2021/03/23 04:47:46;;;;;;;6.03;3.30;;;5.50;99.90;;;;;;5013671;28;20479;-53
2021/03/23 04:50:17;;;;;;;5.60;3.33;;;5.50;99.90;;;;;;5018600;28;20252;-51
2021/03/23 04:52:45;;;;;;;7.23;3.80;;;5.60;99.90;;;;;;5029888;28;20505;-52
2021/03/23 04:55:14;;;;;;;7.40;4.00;;;5.50;99.90;;;;;;5030042;28;20252;-52
2021/03/23 04:57:42;;;;;;;5.60;4.13;;;5.50;99.90;;;;;;5029409;28;20240;-54
2021/03/23 05:00:14;;;;;;;6.33;4.10;;;5.60;99.90;;;;;;5018720;28;21273;-54
2021/03/23 05:02:42;;;;;;;8.43;4.83;;;5.70;99.90;;;;;;4996063;28;20496;-51
2021/03/23 05:05:11;;;;;;;7.37;4.53;;;5.60;99.90;;;;;;5011268;28;20288;-51
2021/03/23 05:07:39;;;;;;;8.37;4.50;;;5.50;99.90;;;;;;5001690;28;20240;-52
2021/03/23 05:10:11;;;;;;;8.47;4.07;;;5.50;99.90;;;;;;5019951;28;20253;-52
2021/03/23 05:12:39;;;;;;;7.57;4.07;;;5.50;99.90;;;;;;4990258;28;20328;-54
2021/03/23 05:15:10;;;;;;;6.67;3.67;;;5.50;99.90;;;;;;4993763;28;20252;-52
2021/03/23 05:17:37;;;;;;;7.20;4.33;;;5.60;99.90;;;;;;4995697;28;20240;-50
2021/03/23 05:20:08;;;;;;;7.70;4.60;;;5.50;99.90;;;;;;4995629;28;20718;-52
2021/03/23 05:22:35;;;;;;;9.13;4.30;;;5.50;99.90;;;;;;4998029;28;20571;-51
2021/03/23 05:25:04;;;;;;;6.23;4.30;;;5.60;99.90;;;;;;4999832;28;20814;-53
2021/03/23 05:27:32;;;;;;;6.20;4.40;;;5.50;99.90;;;;;;5009672;28;20331;-52
2021/03/23 05:29:59;;;;;;;6.20;4.23;;;5.60;99.90;;;;;;5007569;28;20268;-52
2021/03/23 05:32:26;;;;;;;7.53;4.40;;;5.50;99.90;;;;;;5007530;28;20234;-52
2021/03/23 05:34:54;;;;;;;6.53;4.27;;;5.50;99.90;;;;;;5024129;28;20251;-52
2021/03/23 05:37:21;;;;;;;6.97;4.63;;;5.50;99.90;;;;;;5006559;28;20296;-52
2021/03/23 05:39:48;;;;;;;8.33;4.83;;;5.70;99.90;;;;;;5000004;28;20480;-52
2021/03/23 05:42:35;;;;;;;8.07;5.20;;;5.70;99.90;;;;;;5015169;28;20320;-51
2021/03/23 05:45:18;;;;;;;8.67;5.10;;;5.60;99.90;;;;;;5012261;28;20479;-54
2021/03/23 05:48:05;;;;;;;8.47;5.30;;;5.70;99.90;;;;;;5005316;28;20479;-51
2021/03/23 05:50:34;;;;;;;8.40;4.87;;;5.60;99.90;;;;;;5006870;28;20283;-53
2021/03/23 05:53:10;;;;;;;8.53;5.87;;;5.50;99.90;;;;;;5004898;28;20573;-52
2021/03/23 05:55:41;;;;;;;11.77;5.63;;;5.70;99.90;;;;;;5000212;28;20288;-52
2021/03/23 05:58:22;;;;;;;8.93;5.43;;;5.50;99.90;;;;;;4983817;28;20858;-54
2021/03/23 06:00:58;;;;;;;8.50;5.77;;;5.60;99.90;;;;;;4994743;28;20477;-52
2021/03/23 06:03:30;;;;;;;11.07;6.13;;;5.60;99.90;;;;;;4996733;28;20608;-52
2021/03/23 06:06:05;;;;;;;11.37;6.70;;;5.50;99.90;;;;;;5005671;28;20705;-52
2021/03/23 06:08:36;;;;;;;12.30;6.70;;;5.50;99.90;;;;;;5002934;28;20499;-51
2021/03/23 06:11:41;;;;;;;12.67;7.00;;;5.50;99.90;;;;;;5007156;28;20487;-52
2021/03/23 06:14:48;;;;;;;14.17;6.60;;;5.50;99.90;;;;;;5004408;28;20243;-55
2021/03/23 06:17:24;;;;;;;10.13;7.10;;;5.50;99.90;;;;;;4976807;28;20489;-51
2021/03/23 06:20:03;;;;;;;10.00;6.60;;;5.50;99.90;;;;;;4993274;28;20562;-53
2021/03/23 06:22:46;;;;;;;14.50;7.50;;;5.60;99.90;;;;;;5000441;28;20479;-54
2021/03/23 06:25:29;;;;;;;12.40;7.23;;;5.50;99.90;;;;;;4999158;28;20993;-52
2021/03/23 06:28:15;;;;;;;12.93;8.00;;;5.60;99.90;;;;;;4991940;28;20308;-51
2021/03/23 06:30:54;;;;;;;16.77;7.90;;;5.50;99.90;;;;;;4994715;28;20298;-53
2021/03/23 06:33:26;;;;;;;16.80;9.10;;;5.60;99.90;;;;;;5005753;28;20474;-53
2021/03/23 06:35:58;;;;;;;14.30;8.40;;;5.60;99.90;;;;;;5005737;28;20248;-53
2021/03/23 06:38:38;;;;;;;15.33;8.03;;;5.60;99.90;;;;;;4991196;28;20583;-53
2021/03/23 06:41:24;;;;;;;15.10;9.00;;;5.50;99.90;;;;;;5004940;28;20240;-52
2021/03/23 06:43:56;;;;;;;20.03;9.50;;;5.50;99.90;;;;;;5017117;28;20542;-52
2021/03/23 06:46:40;;;;;;;19.90;9.50;;;5.50;99.90;;;;;;5010866;28;20323;-52
2021/03/23 06:49:33;;;;;;;17.90;9.60;;;5.50;99.90;;;;;;4968068;28;20486;-54
2021/03/23 06:52:19;;;;;;;16.50;9.57;;;5.50;99.90;;;;;;4969035;28;20257;-52
2021/03/23 06:55:11;;;;;;;16.90;9.33;;;5.50;99.90;;;;;;4969172;28;20516;-51
2021/03/23 06:57:39;;;;;;;19.73;10.07;;;5.50;99.90;;;;;;4998783;28;20643;-52
2021/03/23 07:00:21;;;;;;;18.63;9.97;;;5.50;99.90;;;;;;4999850;28;20484;-53
2021/03/23 07:02:51;;;;;;;18.20;10.33;;;5.60;99.90;;;;;;5002236;28;20867;-53
2021/03/23 07:05:39;;;;;;;18.00;10.50;;;5.60;99.90;;;;;;5008100;28;20554;-56
2021/03/23 07:08:22;;;;;;;19.93;10.57;;;5.60;99.90;;;;;;5007354;28;20286;-52
2021/03/23 07:11:07;;;;;;;18.67;9.93;;;5.60;99.90;;;;;;5001029;28;20487;-52
2021/03/23 07:13:39;;;;;;;21.13;10.40;;;5.60;99.90;;;;;;5000013;28;20484;-53
2021/03/23 07:16:28;;;;;;;17.27;10.50;;;5.70;99.90;;;;;;4986161;28;20330;-52
2021/03/23 07:19:10;;;;;;;20.03;11.17;;;5.70;99.90;;;;;;4991793;28;20481;-52
2021/03/23 07:21:44;;;;;;;19.00;11.43;;;5.70;99.90;;;;;;4986507;28;21058;-51
2021/03/23 07:24:16;;;;;;;18.47;11.03;;;5.80;99.90;;;;;;4988003;28;20709;-51
2021/03/23 07:26:57;;;;;;;17.27;10.50;;;5.80;99.90;;;;;;5001862;28;20543;-53
2021/03/23 07:29:32;;;;;;;19.37;12.47;;;5.80;99.90;;;;;;4987306;28;20559;-52
2021/03/23 07:32:11;;;;;;;20.43;11.67;;;5.80;99.90;;;;;;5002686;28;21077;-52
2021/03/23 07:35:02;;;;;;;21.10;11.50;;;5.90;99.90;;;;;;5007714;28;20490;-51
2021/03/23 07:37:42;;;;;;;23.50;12.53;;;5.90;99.90;;;;;;5003641;28;20239;-51
2021/03/23 07:40:24;;;;;;;18.43;11.57;;;5.90;99.90;;;;;;5005083;28;20900;-51
2021/03/23 07:43:16;;;;;;;21.33;12.37;;;5.90;99.90;;;;;;5014127;28;20267;-51
2021/03/23 07:45:54;;;;;;;22.47;11.77;;;5.90;99.90;;;;;;4996771;28;20240;-52
2021/03/23 07:48:32;;;;;;;19.80;12.30;;;5.90;99.90;;;;;;5010648;28;20475;-52
2021/03/23 07:51:24;;;;;;;22.07;11.00;;;5.90;99.90;;;;;;5010787;28;20239;-52
2021/03/23 07:54:21;;;;;;;16.57;10.97;;;6.00;99.90;;;;;;4996757;28;20269;-52
2021/03/23 07:57:31;;;;;;;20.73;10.77;;;6.00;99.90;;;;;;4986244;28;20682;-54
2021/03/23 08:00:13;;;;;;;19.17;11.23;;;6.00;99.90;;;;;;4971812;28;20551;-52
2021/03/23 08:03:35;;;;;;;20.23;11.03;;;6.10;99.90;;;;;;4991312;28;20315;-51
2021/03/23 08:06:13;;;;;;;15.13;9.60;;;6.10;99.90;;;;;;4996405;28;20495;-52
2021/03/23 08:09:19;;;;;;;18.63;9.83;;;6.10;99.90;;;;;;4999722;28;20542;-53
2021/03/23 08:11:55;;;;;;;17.47;10.27;;;6.10;99.90;;;;;;4986514;28;20498;-51
2021/03/23 08:14:43;;;;;;;15.40;10.30;;;6.10;99.90;;;;;;4996890;28;20249;-55
2021/03/23 08:17:40;;;;;;;19.97;10.37;;;6.10;99.90;;;;;;4999418;28;20249;-51
2021/03/23 08:20:32;;;;;;;19.60;10.67;;;6.10;99.90;;;;;;4960213;28;20496;-54
2021/03/23 08:23:18;;;;;;;17.33;10.30;;;6.20;99.90;;;;;;4979874;28;20244;-51
2021/03/23 08:25:48;;;;;;;14.40;9.67;;;6.20;99.90;;;;;;4988439;28;20756;-52
2021/03/23 08:28:39;;;;;;;17.67;9.57;;;6.30;99.90;;;;;;4994659;28;20242;-52
2021/03/23 08:31:41;;;;;;;17.50;10.47;;;6.30;99.90;;;;;;4986784;28;20480;-52
2021/03/23 08:34:43;;;;;;;18.23;10.87;;;6.30;99.90;;;;;;4996171;28;20247;-53
2021/03/23 08:37:52;;;;;;;17.17;9.73;;;6.30;99.90;;;;;;4997447;28;20469;-53
2021/03/23 08:40:32;;;;;;;14.63;10.33;;;6.30;99.90;;;;;;4984142;28;20230;-53
2021/03/23 08:43:00;;;;;;;16.33;9.53;;;6.40;99.90;;;;;;4977804;28;20539;-51
2021/03/23 08:45:31;;;;;;;17.90;11.27;;;6.40;99.90;;;;;;4967533;28;20591;-54
2021/03/23 08:48:05;;;;;;;16.20;9.73;;;6.40;99.90;;;;;;4976952;28;20262;-52
2021/03/23 08:50:35;;;;;;;18.57;10.47;;;6.40;99.90;;;;;;4959394;28;20373;-56
2021/03/23 08:53:40;;;;;;;17.40;10.50;;;6.40;99.90;;;;;;4973562;28;20239;-52
2021/03/23 08:56:09;;;;;;;17.40;11.97;;;6.50;99.90;;;;;;4957004;28;20246;-51
2021/03/23 08:58:52;;;;;;;14.33;10.63;;;6.50;99.90;;;;;;4976754;28;20675;-51
2021/03/23 09:01:42;;;;;;;16.63;10.97;;;6.50;99.90;;;;;;4988320;28;20653;-54
2021/03/23 09:04:33;;;;;;;18.13;11.03;;;6.50;99.90;;;;;;4976793;28;20586;-52
2021/03/23 09:07:04;;;;;;;22.03;11.40;;;6.50;99.90;;;;;;4979294;28;20249;-53
2021/03/23 09:09:39;;;;;;;18.80;11.77;;;6.50;99.90;;;;;;4990836;28;20343;-53
2021/03/23 09:12:14;;;;;;;15.23;10.60;;;6.60;99.90;;;;;;4986200;28;20299;-51
2021/03/23 09:15:25;;;;;;;17.73;11.13;;;6.60;99.90;;;;;;4987538;28;20245;-52
2021/03/23 09:18:06;;;;;;;18.90;11.07;;;6.60;99.90;;;;;;4990868;28;20778;-52
2021/03/23 09:21:02;;;;;;;19.87;11.27;;;6.60;99.90;;;;;;4997649;28;20628;-55
2021/03/23 09:23:54;;;;;;;17.80;11.63;;;6.60;99.90;;;;;;4958845;28;20239;-53
2021/03/23 09:26:51;;;;;;;19.73;12.43;;;6.60;99.90;;;;;;4997845;28;20320;-51
2021/03/23 09:29:44;;;;;;;18.77;12.40;;;6.60;99.90;;;;;;4983326;28;20241;-52
2021/03/23 09:32:20;;;;;;;19.53;12.57;;;6.60;99.90;;;;;;4997202;28;20299;-53
2021/03/23 09:35:18;;;;;;;24.83;14.47;;;6.50;99.90;;;;;;4963272;28;20242;-52
2021/03/23 09:37:56;;;;;;;25.17;14.53;;;6.50;99.90;;;;;;4964342;28;20273;-51
2021/03/23 09:40:55;;;;;;;23.67;15.50;;;6.50;99.90;;;;;;4962309;28;20675;-53
2021/03/23 09:43:38;;;;;;;25.90;16.37;;;6.50;99.90;;;;;;4981054;28;20795;-53
2021/03/23 09:46:31;;;;;;;29.77;17.13;;;6.50;99.90;;;;;;4996874;28;20582;-52
2021/03/23 09:49:15;;;;;;;31.10;18.80;;;6.60;99.90;;;;;;4997310;28;20606;-52
2021/03/23 09:51:49;;;;;;;29.97;19.80;;;6.70;99.90;;;;;;4996743;28;20232;-55
2021/03/23 09:54:24;;;;;;;32.63;19.90;;;6.70;99.90;;;;;;4962244;28;20595;-51
2021/03/23 09:56:53;;;;;;;33.93;20.90;;;6.70;99.90;;;;;;4978071;28;20331;-51
2021/03/23 09:59:24;;;;;;;33.90;22.03;;;6.80;99.90;;;;;;4986138;28;20368;-52
2021/03/23 10:02:00;;;;;;;32.50;21.03;;;6.80;99.90;;;;;;4997238;28;20256;-55
2021/03/23 10:04:33;;;;;;;33.63;21.27;;;6.80;99.90;;;;;;4993235;28;20244;-54
2021/03/23 10:07:01;;;;;;;33.57;21.87;;;6.90;99.90;;;;;;4996479;28;20241;-52
2021/03/23 10:09:31;;;;;;;32.00;20.83;;;6.90;99.90;;;;;;4996884;28;20541;-53
2021/03/23 10:12:00;;;;;;;36.83;23.13;;;7.00;99.90;;;;;;4997223;28;20314;-54
2021/03/23 10:14:39;;;;;;;36.70;22.70;;;7.00;99.90;;;;;;4994669;28;20299;-54
2021/03/23 10:17:13;;;;;;;32.80;21.93;;;7.00;99.90;;;;;;4997387;28;20617;-55
2021/03/23 10:19:45;;;;;;;35.80;22.43;;;7.10;99.90;;;;;;4996886;28;20240;-53
2021/03/23 10:22:16;;;;;;;37.57;22.20;;;7.20;99.90;;;;;;4997021;28;20700;-52
2021/03/23 10:24:47;;;;;;;42.17;24.13;;;7.20;99.90;;;;;;4993819;28;20655;-53
2021/03/23 10:27:21;;;;;;;36.33;24.30;;;7.20;99.90;;;;;;4995373;28;20340;-55
2021/03/23 10:30:11;;;;;;;37.73;24.03;;;7.10;99.90;;;;;;4995825;28;20273;-53
2021/03/23 10:32:48;;;;;;;38.70;23.93;;;7.00;99.90;;;;;;4995900;28;20241;-52
2021/03/23 10:35:25;;;;;;;35.47;22.83;;;7.00;99.90;;;;;;4962789;28;20273;-56
2021/03/23 10:38:16;;;;;;;39.57;23.50;;;7.00;99.90;;;;;;4965646;28;20321;-52
2021/03/23 10:40:45;;;;;;;40.80;24.10;;;7.00;99.90;;;;;;4994846;28;21363;-54
2021/03/23 10:43:15;;;;;;;36.97;23.17;;;7.00;99.90;;;;;;4995836;28;20704;-52
2021/03/23 10:45:45;;;;;;;44.47;25.67;;;7.10;99.90;;;;;;4994079;28;21268;-52
2021/03/23 10:48:24;;;;;;;35.87;24.70;;;7.20;99.90;;;;;;4996502;28;20239;-52
2021/03/23 10:51:16;;;;;;;37.40;23.60;;;7.20;99.90;;;;;;4968415;28;20256;-52
2021/03/23 10:54:02;;;;;;;40.40;24.83;;;7.30;99.90;;;;;;4961767;28;20246;-53
2021/03/23 10:56:32;;;;;;;36.60;23.30;;;7.40;99.90;;;;;;4990325;28;20237;-52
2021/03/23 10:59:11;;;;;;;35.93;23.40;;;7.50;99.90;;;;;;4988057;28;20416;-52
2021/03/23 11:01:57;;;;;;;35.10;23.80;;;7.50;99.90;;;;;;4984098;28;20633;-54
2021/03/23 11:04:27;;;;;;;35.70;24.73;;;7.60;99.90;;;;;;4983757;28;20712;-53
2021/03/23 11:06:54;;;;;;;37.20;23.40;;;7.60;99.90;;;;;;4996783;28;20299;-53
2021/03/23 11:09:21;;;;;;;36.73;25.20;;;7.60;99.90;;;;;;4996274;28;20287;-50
2021/03/23 11:11:59;;;;;;;39.43;24.80;;;7.60;99.90;;;;;;4996021;28;20255;-55
2021/03/23 11:14:26;;;;;;;35.33;24.47;;;7.70;99.90;;;;;;4983858;28;20237;-55
2021/03/23 11:16:59;;;;;;;35.13;24.03;;;7.70;99.90;;;;;;4996225;28;20878;-53
2021/03/23 11:19:31;;;;;;;36.57;24.87;;;7.80;99.90;;;;;;4999141;28;20241;-53
2021/03/23 11:22:03;;;;;;;37.50;25.33;;;7.90;99.90;;;;;;4997895;28;20275;-51
2021/03/23 11:24:31;;;;;;;32.73;23.83;;;7.80;99.90;;;;;;4988692;28;20256;-51
2021/03/23 11:26:59;;;;;;;36.47;25.17;;;7.90;99.90;;;;;;4990833;28;20242;-53
2021/03/23 11:29:28;;;;;;;34.27;24.00;;;7.80;99.90;;;;;;4984150;28;20717;-49
2021/03/23 11:31:56;;;;;;;33.03;23.97;;;7.80;99.90;;;;;;4989781;28;20331;-51
2021/03/23 11:34:23;;;;;;;34.93;23.90;;;7.90;99.90;;;;;;4981412;28;20250;-53
2021/03/23 11:36:52;;;;;;;32.30;23.83;;;7.90;99.90;;;;;;4990896;28;20260;-51
2021/03/23 11:39:21;;;;;;;34.33;23.77;;;7.90;99.90;;;;;;4987308;28;20261;-50
2021/03/23 11:42:02;;;;;;;32.10;24.40;;;7.90;99.90;;;;;;4990728;28;20241;-53
2021/03/23 11:44:34;;;;;;;39.33;25.87;;;7.90;99.90;;;;;;4983780;28;20232;-51
2021/03/23 11:47:10;;;;;;;38.93;25.20;;;8.00;99.90;;;;;;4994938;28;20283;-52
2021/03/23 11:50:07;;;;;;;36.23;25.10;;;8.00;99.90;;;;;;4979400;28;20233;-54
2021/03/23 11:52:36;;;;;;;38.50;26.67;;;8.10;99.90;;;;;;4945263;28;20381;-54
2021/03/23 11:55:06;;;;;;;38.83;24.70;;;8.10;99.90;;;;;;4977414;28;20280;-51
2021/03/23 11:57:34;;;;;;;37.07;25.17;;;8.20;99.90;;;;;;4980461;28;20327;-54
2021/03/23 12:00:03;;;;;;;36.73;24.27;;;8.20;99.90;;;;;;4977520;28;20245;-53
2021/03/23 12:02:32;;;;;;;34.53;25.10;;;8.30;99.90;;;;;;4979474;28;20240;-52
2021/03/23 12:05:01;;;;;;;36.57;24.83;;;8.30;99.90;;;;;;4975305;28;20307;-53
2021/03/23 12:07:48;;;;;;;39.80;25.60;;;8.30;99.90;;;;;;4978823;28;20313;-53
2021/03/23 12:10:24;;;;;;;35.67;24.47;;;8.30;99.90;;;;;;4976474;28;20265;-51
2021/03/23 12:12:58;;;;;;;36.17;24.73;;;8.30;99.90;;;;;;4990468;28;20774;-52
2021/03/23 12:15:35;;;;;;;38.77;24.97;;;8.20;99.90;;;;;;4995777;28;20769;-51
2021/03/23 12:18:08;;;;;;;34.60;24.07;;;8.20;99.90;;;;;;4999014;28;20538;-53
2021/03/23 12:20:38;;;;;;;37.77;24.73;;;8.10;99.90;;;;;;4998021;28;20265;-50
2021/03/23 12:23:07;;;;;;;37.30;24.67;;;8.10;99.90;;;;;;4996463;28;20387;-51
2021/03/23 12:25:36;;;;;;;33.50;24.77;;;8.00;99.90;;;;;;4995591;28;20336;-51
2021/03/23 12:28:04;;;;;;;35.63;24.53;;;8.00;99.90;;;;;;4998843;28;20290;-52
2021/03/23 12:30:31;;;;;;;32.43;23.40;;;8.00;99.90;;;;;;4998145;28;20784;-53
2021/03/23 12:32:58;;;;;;;38.63;24.33;;;8.00;99.90;;;;;;4999398;28;21649;-49
2021/03/23 12:35:29;;;;;;;35.67;24.27;;;8.00;99.90;;;;;;4996646;28;20249;-53
2021/03/23 12:38:00;;;;;;;39.40;25.20;;;8.00;99.90;;;;;;4999597;28;20303;-49
2021/03/23 12:40:30;;;;;;;34.57;25.30;;;7.90;99.90;;;;;;4997993;28;20241;-50
2021/03/23 12:43:08;;;;;;;36.70;24.70;;;8.00;99.90;;;;;;4999273;28;20328;-53
2021/03/23 12:45:40;;;;;;;39.07;26.03;;;8.00;99.90;;;;;;4996596;28;20301;-53
2021/03/23 12:48:09;;;;;;;38.50;24.97;;;8.10;99.90;;;;;;4999037;28;21043;-51
2021/03/23 12:50:37;;;;;;;38.23;26.00;;;8.20;99.90;;;;;;4995598;28;20696;-49
2021/03/23 12:53:10;;;;;;;40.10;25.13;;;8.20;99.90;;;;;;4999832;28;20269;-50
2021/03/23 12:55:42;;;;;;;39.20;25.73;;;8.30;99.90;;;;;;4994841;28;20695;-53
2021/03/23 12:58:15;;;;;;;36.20;26.17;;;8.40;99.90;;;;;;4998470;28;20919;-55
2021/03/23 13:00:43;;;;;;;36.77;25.80;;;8.50;99.90;;;;;;4996909;28;20248;-50
2021/03/23 13:03:15;;;;;;;37.33;24.77;;;8.60;99.90;;;;;;4998460;28;20245;-52
2021/03/23 13:05:43;;;;;;;37.33;26.10;;;8.70;99.90;;;;;;4994681;28;20256;-51
2021/03/23 13:08:22;;;;;;;38.90;26.23;;;8.70;99.90;;;;;;4998014;28;20245;-54
2021/03/23 13:10:53;;;;;;;35.87;24.43;;;8.70;99.90;;;;;;4997873;28;20328;-53
2021/03/23 13:13:27;;;;;;;35.63;23.93;;;8.70;99.90;;;;;;4959733;28;20238;-53
2021/03/23 13:15:56;;;;;;;37.60;25.13;;;8.70;99.90;;;;;;4958298;28;20239;-50
2021/03/23 13:18:29;;;;;;;39.13;25.27;;;8.70;99.90;;;;;;4966256;28;20247;-51
2021/03/23 13:20:59;;;;;;;32.67;22.70;;;8.70;99.90;;;;;;4971115;28;20241;-52
2021/03/23 13:23:34;;;;;;;36.70;23.53;;;8.70;99.90;;;;;;4968687;28;20277;-52
2021/03/23 13:26:04;;;;;;;35.27;24.00;;;8.70;99.90;;;;;;4959718;28;20324;-51